Time;durP1;ratioP1;P1;durP2;ratioP2;P2;SDS_P1;SDS_P2;PMS_P1;PMS_P2;Temp;Humidity;BMP_temperature;BMP_pressure;BME280_temperature;BME280_humidity;BME280_pressure;Samples;Min_cycle;Max_cycle;Signal;HPM_P1;HPM_P2
2021/04/17 00:01:33;;;;;;;7.18;5.35;;;8.30;76.80;;;;;;5009230;28;20037;-63
2021/04/17 00:03:58;;;;;;;6.78;5.07;;;8.30;77.00;;;;;;5007928;28;20199;-63
2021/04/17 00:06:24;;;;;;;7.00;6.13;;;8.30;77.00;;;;;;5009703;28;20132;-63
2021/04/17 00:08:50;;;;;;;8.15;6.88;;;8.30;77.30;;;;;;5006744;28;20034;-63
2021/04/17 00:11:16;;;;;;;8.68;7.30;;;8.30;77.60;;;;;;5008340;28;20030;-63
2021/04/17 00:13:43;;;;;;;9.25;7.28;;;8.40;77.50;;;;;;5009595;28;20456;-63
2021/04/17 00:16:08;;;;;;;8.27;6.90;;;8.50;77.50;;;;;;5007303;28;20056;-63
2021/04/17 00:18:34;;;;;;;11.50;8.45;;;8.50;77.70;;;;;;5010728;28;20057;-63
2021/04/17 00:21:00;;;;;;;11.77;9.15;;;8.60;78.30;;;;;;5007252;28;20018;-63
2021/04/17 00:23:25;;;;;;;12.98;9.98;;;8.60;77.60;;;;;;5007743;28;20056;-63
2021/04/17 00:25:51;;;;;;;13.55;9.85;;;8.70;77.20;;;;;;5008593;28;20033;-63
2021/04/17 00:28:17;;;;;;;12.95;10.23;;;8.70;77.10;;;;;;5007885;28;20025;-63
2021/04/17 00:30:42;;;;;;;13.23;10.55;;;8.70;77.30;;;;;;5013188;28;20060;-63
2021/04/17 00:33:08;;;;;;;12.63;10.77;;;8.70;77.00;;;;;;5010242;28;20029;-63
2021/04/17 00:35:35;;;;;;;14.57;11.20;;;8.70;76.80;;;;;;5006496;28;20037;-63
2021/04/17 00:38:01;;;;;;;13.10;10.80;;;8.70;76.90;;;;;;5007712;28;20413;-63
2021/04/17 00:40:27;;;;;;;11.52;9.45;;;8.80;77.00;;;;;;5009255;28;20037;-63
2021/04/17 00:42:52;;;;;;;13.18;9.82;;;8.80;76.90;;;;;;5006989;28;20045;-63
2021/04/17 00:45:19;;;;;;;12.98;10.48;;;8.80;77.00;;;;;;5006697;28;20042;-63
2021/04/17 00:47:45;;;;;;;11.63;9.73;;;8.80;76.90;;;;;;5010561;28;20428;-63
2021/04/17 00:50:12;;;;;;;12.38;9.55;;;8.80;77.00;;;;;;5009625;28;20095;-63
2021/04/17 00:52:40;;;;;;;13.40;9.75;;;8.80;76.90;;;;;;5010741;28;20031;-63
2021/04/17 00:55:08;;;;;;;11.32;9.82;;;8.80;77.10;;;;;;5011481;28;20025;-63
2021/04/17 00:57:33;;;;;;;12.75;10.00;;;8.90;77.30;;;;;;5011736;28;20485;-63
2021/04/17 00:59:59;;;;;;;11.27;9.23;;;8.90;77.20;;;;;;5011062;28;20412;-63
2021/04/17 01:02:31;;;;;;;13.93;11.40;;;9.00;77.10;;;;;;5012533;28;20026;-63
2021/04/17 01:04:57;;;;;;;;;;;9.00;77.00;;;;;;5010704;28;20029;-63
2021/04/17 01:07:39;;;;;;;12.88;10.15;;;9.00;76.90;;;;;;5014269;28;19913;-63
2021/04/17 01:10:07;;;;;;;12.73;10.30;;;9.00;76.90;;;;;;5012549;28;20075;-63
2021/04/17 01:12:38;;;;;;;11.68;9.10;;;9.00;76.40;;;;;;5010209;28;20370;-63
2021/04/17 01:15:06;;;;;;;14.60;10.67;;;9.00;76.00;;;;;;5013440;28;20047;-63
2021/04/17 01:17:33;;;;;;;11.60;9.30;;;8.90;76.00;;;;;;5011275;28;20131;-63
2021/04/17 01:20:08;;;;;;;12.80;10.20;;;8.80;76.40;;;;;;5009524;28;20505;-63
2021/04/17 01:22:34;;;;;;;13.73;10.32;;;8.70;77.40;;;;;;5012314;28;20022;-63
2021/04/17 01:25:08;;;;;;;16.55;12.13;;;8.70;77.00;;;;;;5010220;28;20080;-63
2021/04/17 01:27:35;;;;;;;14.35;11.20;;;8.80;77.10;;;;;;5011801;28;20037;-63
2021/04/17 01:30:05;;;;;;;17.92;11.60;;;8.80;77.30;;;;;;5012856;28;20076;-63
2021/04/17 01:32:32;;;;;;;16.07;10.60;;;8.80;77.10;;;;;;5011596;28;20029;-63
2021/04/17 01:34:58;;;;;;;16.77;10.55;;;8.80;77.10;;;;;;5014516;28;20080;-63
2021/04/17 01:37:53;;;;;;;13.23;10.38;;;8.80;76.90;;;;;;5011035;28;20022;-65
2021/04/17 01:40:23;;;;;;;14.05;9.73;;;8.80;77.00;;;;;;5010543;28;20037;-63
2021/04/17 01:42:51;;;;;;;15.57;11.27;;;8.80;77.30;;;;;;5009123;28;20037;-66
2021/04/17 01:45:20;;;;;;;18.45;12.07;;;8.90;77.50;;;;;;5011902;28;20033;-63
2021/04/17 01:47:47;;;;;;;16.98;11.57;;;8.90;77.20;;;;;;5010559;28;20034;-63
2021/04/17 01:50:14;;;;;;;19.63;14.48;;;8.90;77.10;;;;;;5010806;28;20040;-63
2021/04/17 01:52:42;;;;;;;24.10;16.77;;;8.90;77.00;;;;;;5010592;28;20040;-63
2021/04/17 01:55:08;;;;;;;19.02;14.10;;;8.80;76.90;;;;;;5009389;28;20072;-63
2021/04/17 01:57:36;;;;;;;21.52;15.40;;;8.80;77.00;;;;;;5009192;28;20029;-63
2021/04/17 02:00:06;;;;;;;19.98;15.02;;;8.80;77.10;;;;;;5008847;28;20022;-63
2021/04/17 02:02:31;;;;;;;21.95;16.45;;;8.80;77.40;;;;;;5011441;28;20393;-64
2021/04/17 02:04:57;;;;;;;21.15;14.80;;;8.80;77.60;;;;;;5010812;28;20022;-63
2021/04/17 02:07:23;;;;;;;21.75;14.85;;;8.90;77.80;;;;;;5010648;28;20036;-63
2021/04/17 02:09:48;;;;;;;18.60;13.50;;;8.90;77.70;;;;;;5010036;28;20038;-63
2021/04/17 02:12:14;;;;;;;19.35;12.63;;;9.00;77.80;;;;;;5008953;28;20025;-63
2021/04/17 02:14:40;;;;;;;19.45;12.77;;;9.00;77.90;;;;;;5011294;28;20464;-63
2021/04/17 02:17:16;;;;;;;19.85;13.60;;;9.10;78.00;;;;;;5013843;28;20369;-63
2021/04/17 02:19:50;;;;;;;19.48;11.77;;;9.10;77.90;;;;;;5012945;28;20072;-63
2021/04/17 02:22:16;;;;;;;15.40;10.07;;;9.10;77.80;;;;;;5010474;28;20045;-63
2021/04/17 02:24:42;;;;;;;19.00;10.80;;;9.10;77.70;;;;;;5010049;28;20038;-63
2021/04/17 02:27:09;;;;;;;18.27;10.98;;;9.10;77.50;;;;;;5012512;28;20033;-63
2021/04/17 02:29:35;;;;;;;18.02;11.07;;;9.20;77.60;;;;;;5010864;28;20060;-63
2021/04/17 02:32:00;;;;;;;13.52;8.55;;;9.20;77.50;;;;;;5011614;28;20022;-63
2021/04/17 02:34:26;;;;;;;16.33;8.95;;;9.10;77.30;;;;;;5010299;28;20022;-63
2021/04/17 02:36:52;;;;;;;16.80;9.43;;;9.10;77.30;;;;;;5011074;28;20027;-63
2021/04/17 02:39:18;;;;;;;18.20;9.68;;;9.20;77.60;;;;;;5009467;28;20032;-63
2021/04/17 02:41:44;;;;;;;14.52;8.80;;;9.20;77.70;;;;;;5008186;28;20033;-63
2021/04/17 02:44:10;;;;;;;20.42;10.40;;;9.20;77.70;;;;;;5011134;28;20030;-63
2021/04/17 02:46:35;;;;;;;21.50;12.63;;;9.20;77.70;;;;;;5010417;28;20069;-63
2021/04/17 02:49:01;;;;;;;19.95;11.43;;;9.20;77.60;;;;;;5011599;28;20033;-63
2021/04/17 02:51:27;;;;;;;20.58;11.15;;;9.30;77.60;;;;;;5009905;28;20494;-63
2021/04/17 02:53:52;;;;;;;23.10;11.48;;;9.20;77.50;;;;;;5009154;28;20034;-63
2021/04/17 02:56:19;;;;;;;21.13;11.60;;;9.30;77.60;;;;;;5008017;28;20030;-63
2021/04/17 02:58:45;;;;;;;18.50;11.35;;;9.30;77.70;;;;;;5007807;28;20092;-63
2021/04/17 03:01:11;;;;;;;19.85;11.35;;;9.30;77.80;;;;;;5009204;28;20485;-63
2021/04/17 03:03:36;;;;;;;21.80;12.95;;;9.30;77.80;;;;;;5009536;28;21294;-63
2021/04/17 03:06:02;;;;;;;19.13;11.63;;;9.30;77.80;;;;;;5010435;28;20038;-63
2021/04/17 03:08:28;;;;;;;22.30;12.45;;;9.40;77.90;;;;;;5007662;28;20026;-63
2021/04/17 03:10:54;;;;;;;24.83;11.75;;;9.40;77.90;;;;;;5009057;28;20088;-63
2021/04/17 03:13:19;;;;;;;26.23;13.68;;;9.40;78.00;;;;;;5008897;28;20034;-63
2021/04/17 03:15:45;;;;;;;27.75;15.38;;;9.40;78.00;;;;;;5013106;28;20097;-63
2021/04/17 03:18:12;;;;;;;27.48;16.00;;;9.40;78.00;;;;;;5010481;28;20561;-63
2021/04/17 03:20:38;;;;;;;27.25;13.93;;;9.40;78.30;;;;;;5009243;28;20041;-63
2021/04/17 03:23:04;;;;;;;24.27;13.73;;;9.40;78.30;;;;;;5008420;28;20038;-63
2021/04/17 03:25:30;;;;;;;22.70;14.15;;;9.40;78.30;;;;;;5009786;28;20060;-63
2021/04/17 03:27:56;;;;;;;25.35;13.63;;;9.40;78.40;;;;;;5010361;28;20505;-63
2021/04/17 03:30:28;;;;;;;22.08;14.15;;;9.40;78.60;;;;;;5010800;28;20386;-63
2021/04/17 03:32:55;;;;;;;26.08;12.93;;;9.40;78.90;;;;;;5010050;28;20117;-63
2021/04/17 03:35:21;;;;;;;20.45;11.75;;;9.40;79.00;;;;;;5008129;28;20148;-63
2021/04/17 03:37:47;;;;;;;18.48;11.50;;;9.40;79.60;;;;;;5010474;28;20125;-63
2021/04/17 03:40:13;;;;;;;16.85;11.80;;;9.40;79.20;;;;;;5010715;28;20033;-63
2021/04/17 03:42:39;;;;;;;16.60;11.38;;;9.40;79.30;;;;;;5011305;28;20497;-63
2021/04/17 03:45:06;;;;;;;17.77;11.38;;;9.50;79.40;;;;;;5010189;28;20462;-63
2021/04/17 03:47:32;;;;;;;16.75;12.18;;;9.50;79.30;;;;;;5012028;28;20381;-63
2021/04/17 03:49:57;;;;;;;20.50;13.35;;;9.50;79.50;;;;;;5007069;28;20026;-63
2021/04/17 03:52:23;;;;;;;20.60;13.02;;;9.50;79.50;;;;;;5012447;28;20017;-63
2021/04/17 03:54:49;;;;;;;20.45;13.63;;;9.50;79.30;;;;;;5008785;28;20026;-63
2021/04/17 03:57:15;;;;;;;18.90;12.85;;;9.50;79.30;;;;;;5008736;28;20087;-63
2021/04/17 03:59:40;;;;;;;18.67;12.52;;;9.50;79.70;;;;;;5006325;28;20030;-63
2021/04/17 04:02:06;;;;;;;17.45;12.55;;;9.50;79.60;;;;;;5006796;28;20760;-63
2021/04/17 04:04:31;;;;;;;19.33;12.25;;;9.50;79.70;;;;;;5007541;28;20543;-63
2021/04/17 04:06:57;;;;;;;16.58;12.30;;;9.50;79.80;;;;;;5011938;28;20035;-63
2021/04/17 04:09:23;;;;;;;15.30;11.43;;;9.50;79.90;;;;;;5009764;28;20381;-63
2021/04/17 04:11:48;;;;;;;17.33;11.75;;;9.50;80.10;;;;;;5009678;28;20057;-63
2021/04/17 04:14:14;;;;;;;18.70;12.90;;;9.60;80.20;;;;;;5007604;28;20375;-63
2021/04/17 04:16:40;;;;;;;23.38;13.50;;;9.50;80.20;;;;;;5009222;28;20064;-63
2021/04/17 04:19:06;;;;;;;21.80;13.07;;;9.50;80.10;;;;;;5010103;28;20552;-63
2021/04/17 04:21:31;;;;;;;22.67;14.43;;;9.50;80.40;;;;;;5008517;28;20045;-63
2021/04/17 04:23:57;;;;;;;21.48;13.77;;;9.50;80.70;;;;;;5006799;28;20095;-63
2021/04/17 04:26:23;;;;;;;17.98;12.68;;;9.60;80.70;;;;;;5010430;28;20072;-63
2021/04/17 04:28:49;;;;;;;18.45;12.90;;;9.60;80.70;;;;;;5008216;28;20027;-63
2021/04/17 04:31:14;;;;;;;20.90;12.35;;;9.60;80.60;;;;;;5008313;28;20090;-63
2021/04/17 04:33:40;;;;;;;16.58;11.35;;;9.60;80.70;;;;;;5008938;28;20057;-63
2021/04/17 04:36:06;;;;;;;16.58;11.10;;;9.60;80.80;;;;;;5010553;28;20038;-63
2021/04/17 04:38:31;;;;;;;18.20;11.82;;;9.70;80.70;;;;;;5011879;28;20045;-63
2021/04/17 04:40:58;;;;;;;15.15;11.30;;;9.70;80.80;;;;;;5011088;28;20034;-63
2021/04/17 04:43:24;;;;;;;13.15;9.50;;;9.70;80.80;;;;;;5011765;28;20072;-63
2021/04/17 04:45:50;;;;;;;13.38;9.85;;;9.70;80.70;;;;;;5010241;28;20026;-63
2021/04/17 04:48:16;;;;;;;12.20;9.35;;;9.70;80.80;;;;;;5013737;28;20080;-63
2021/04/17 04:50:41;;;;;;;12.80;8.85;;;9.80;81.00;;;;;;5010618;28;20028;-66
2021/04/17 04:53:07;;;;;;;14.27;9.90;;;9.80;80.90;;;;;;5012901;28;20370;-64
2021/04/17 04:55:33;;;;;;;12.05;9.30;;;9.80;80.90;;;;;;5010853;28;20500;-64
2021/04/17 04:57:59;;;;;;;12.18;8.82;;;9.80;81.00;;;;;;5010854;28;20026;-64
2021/04/17 05:00:25;;;;;;;12.73;9.65;;;9.80;80.90;;;;;;5009834;28;20453;-63
2021/04/17 05:02:51;;;;;;;11.15;8.70;;;9.80;80.80;;;;;;5011231;28;20128;-64
2021/04/17 05:05:17;;;;;;;12.15;8.73;;;9.90;80.80;;;;;;5012994;28;20117;-64
2021/04/17 05:07:43;;;;;;;11.98;8.63;;;9.90;80.80;;;;;;5011821;28;20042;-64
2021/04/17 05:10:09;;;;;;;11.30;8.55;;;9.90;80.80;;;;;;5014051;28;20229;-64
2021/04/17 05:12:35;;;;;;;11.13;8.68;;;9.90;80.80;;;;;;5014923;28;20034;-64
2021/04/17 05:15:01;;;;;;;12.10;8.65;;;10.00;81.00;;;;;;5010503;28;20044;-64
2021/04/17 05:17:27;;;;;;;11.13;8.43;;;10.00;80.80;;;;;;5011915;28;20034;-63
2021/04/17 05:19:53;;;;;;;12.80;8.55;;;10.00;81.10;;;;;;5012327;28;20045;-64
2021/04/17 05:22:19;;;;;;;11.88;8.73;;;10.00;81.20;;;;;;5009415;28;20046;-64
2021/04/17 05:24:45;;;;;;;11.13;8.40;;;10.00;81.20;;;;;;5009282;28;20462;-64
2021/04/17 05:27:11;;;;;;;11.57;9.40;;;10.00;81.40;;;;;;5011166;28;20037;-63
2021/04/17 05:29:36;;;;;;;11.02;8.60;;;10.10;81.40;;;;;;5011618;28;20033;-64
2021/04/17 05:32:02;;;;;;;11.98;9.52;;;10.10;81.60;;;;;;5012668;28;20045;-64
2021/04/17 05:34:28;;;;;;;12.95;10.02;;;10.10;81.70;;;;;;5009949;28;20026;-64
2021/04/17 05:36:54;;;;;;;12.90;9.80;;;10.20;81.50;;;;;;5012308;28;20117;-64
2021/04/17 05:39:20;;;;;;;12.85;9.73;;;10.20;81.60;;;;;;5010144;28;20125;-64
2021/04/17 05:41:45;;;;;;;11.30;9.45;;;10.30;81.60;;;;;;5011795;28;20072;-64
2021/04/17 05:44:11;;;;;;;13.23;10.40;;;10.30;81.10;;;;;;5009032;28;20473;-64
2021/04/17 05:46:42;;;;;;;12.70;10.55;;;10.40;80.90;;;;;;5010031;28;20058;-64
2021/04/17 05:49:08;;;;;;;11.43;9.52;;;10.40;80.90;;;;;;5011380;28;20485;-64
2021/04/17 05:51:36;;;;;;;12.60;10.07;;;10.30;80.60;;;;;;5011900;28;20390;-64
2021/04/17 05:54:03;;;;;;;12.60;9.90;;;10.30;80.70;;;;;;5012407;28;20120;-64
2021/04/17 05:56:29;;;;;;;12.75;9.90;;;10.30;80.80;;;;;;5012316;28;20033;-64
2021/04/17 05:58:54;;;;;;;11.45;9.38;;;10.40;80.70;;;;;;5012047;28;20585;-64
2021/04/17 06:01:20;;;;;;;12.68;10.30;;;10.40;80.80;;;;;;5012090;28;20038;-64
2021/04/17 06:03:46;;;;;;;12.25;9.88;;;10.40;80.80;;;;;;5011289;28;20046;-64
2021/04/17 06:06:12;;;;;;;11.75;9.30;;;10.40;80.80;;;;;;5010885;28;20034;-64
2021/04/17 06:08:38;;;;;;;11.23;8.95;;;10.40;80.50;;;;;;5010036;28;20042;-64
2021/04/17 06:11:07;;;;;;;11.88;8.95;;;10.40;80.60;;;;;;5009983;28;20077;-64
2021/04/17 06:13:33;;;;;;;11.85;9.02;;;10.30;80.70;;;;;;5011044;28;20053;-64
2021/04/17 06:16:00;;;;;;;10.80;8.77;;;10.40;81.00;;;;;;5010665;28;20730;-64
2021/04/17 06:18:26;;;;;;;10.43;7.72;;;10.40;81.00;;;;;;5009759;28;20033;-64
2021/04/17 06:20:52;;;;;;;11.35;8.18;;;10.40;80.70;;;;;;5010840;28;20493;-64
2021/04/17 06:23:17;;;;;;;9.35;8.05;;;10.40;80.80;;;;;;5011701;28;20032;-64
2021/04/17 06:25:43;;;;;;;8.82;7.40;;;10.40;81.00;;;;;;5008658;28;20068;-64
2021/04/17 06:28:09;;;;;;;9.90;8.20;;;10.40;81.20;;;;;;5009431;28;20134;-64
2021/04/17 06:30:34;;;;;;;9.35;7.50;;;10.50;81.30;;;;;;5010192;28;20057;-64
2021/04/17 06:33:00;;;;;;;8.63;7.18;;;10.60;81.10;;;;;;5010837;28;20277;-64
2021/04/17 06:35:27;;;;;;;8.75;7.00;;;10.70;81.40;;;;;;5010246;28;20061;-64
2021/04/17 06:37:52;;;;;;;8.00;7.10;;;10.80;81.10;;;;;;5008870;28;20453;-64
2021/04/17 06:40:18;;;;;;;7.93;7.05;;;10.90;80.60;;;;;;5013116;28;20125;-64
2021/04/17 06:42:45;;;;;;;7.53;6.43;;;10.90;80.50;;;;;;5010578;28;20129;-64
2021/04/17 06:45:13;;;;;;;9.90;6.93;;;10.90;80.30;;;;;;5011180;28;20086;-64
2021/04/17 06:47:40;;;;;;;8.38;7.07;;;10.90;80.20;;;;;;5010117;28;20033;-64
2021/04/17 06:50:09;;;;;;;7.30;6.38;;;10.90;80.20;;;;;;5009410;28;20026;-64
2021/04/17 06:52:40;;;;;;;8.32;6.88;;;11.00;80.30;;;;;;5008980;28;20076;-64
2021/04/17 06:55:07;;;;;;;8.25;7.00;;;11.00;79.70;;;;;;5010745;28;20026;-64
2021/04/17 06:57:33;;;;;;;8.40;7.50;;;11.10;79.80;;;;;;5006787;28;20045;-64
2021/04/17 07:00:07;;;;;;;9.30;7.78;;;11.10;79.50;;;;;;5009836;28;20394;-64
2021/04/17 07:02:33;;;;;;;9.48;7.80;;;11.10;79.50;;;;;;5008146;28;20118;-64
2021/04/17 07:04:59;;;;;;;8.75;7.60;;;11.10;79.80;;;;;;5011191;28;20080;-66
2021/04/17 07:07:25;;;;;;;9.60;8.15;;;11.10;79.70;;;;;;5007704;28;20045;-64
2021/04/17 07:09:52;;;;;;;8.82;7.85;;;11.20;79.40;;;;;;5004600;28;20026;-64
2021/04/17 07:12:18;;;;;;;10.45;9.32;;;11.20;79.00;;;;;;5004978;28;20063;-64
2021/04/17 07:14:49;;;;;;;9.68;8.68;;;11.20;78.90;;;;;;5003285;28;20258;-64
2021/04/17 07:17:18;;;;;;;9.40;8.40;;;11.20;78.80;;;;;;5004958;28;20022;-64
2021/04/17 07:19:50;;;;;;;8.63;7.50;;;11.10;78.80;;;;;;5005824;28;20038;-64
2021/04/17 07:22:23;;;;;;;9.68;7.25;;;11.10;78.40;;;;;;5004373;28;20045;-64
2021/04/17 07:24:54;;;;;;;10.10;8.38;;;11.10;78.50;;;;;;5003545;28;20038;-64
2021/04/17 07:27:46;;;;;;;10.30;8.40;;;11.10;78.60;;;;;;5003640;28;20022;-64
2021/04/17 07:30:14;;;;;;;9.45;8.45;;;11.10;78.40;;;;;;5003167;28;20125;-64
2021/04/17 07:32:41;;;;;;;9.23;7.75;;;11.10;78.60;;;;;;5003980;28;20068;-64
2021/04/17 07:35:15;;;;;;;10.00;8.90;;;11.10;78.50;;;;;;5001908;28;20038;-64
2021/04/17 07:37:43;;;;;;;9.55;8.55;;;11.20;78.60;;;;;;5004614;28;20033;-64
2021/04/17 07:40:25;;;;;;;10.30;8.50;;;11.20;78.60;;;;;;5003342;28;20077;-64
2021/04/17 07:42:54;;;;;;;10.02;8.95;;;11.20;78.20;;;;;;5001939;28;20053;-64
2021/04/17 07:45:25;;;;;;;10.93;9.45;;;11.20;78.10;;;;;;5004124;28;20394;-64
2021/04/17 07:47:53;;;;;;;10.93;9.60;;;11.20;78.00;;;;;;5005827;28;20033;-64
2021/04/17 07:50:19;;;;;;;10.63;9.45;;;11.20;77.90;;;;;;5005034;28;20566;-64
2021/04/17 07:52:47;;;;;;;11.93;9.80;;;11.20;77.80;;;;;;5004538;28;20034;-64
2021/04/17 07:55:16;;;;;;;12.93;9.73;;;11.20;77.80;;;;;;5005390;28;20091;-66
2021/04/17 07:57:44;;;;;;;11.77;10.27;;;11.10;78.10;;;;;;5004445;28;20048;-66
2021/04/17 08:00:15;;;;;;;11.63;9.93;;;11.10;77.90;;;;;;5002145;28;20033;-63
2021/04/17 08:02:42;;;;;;;;;;;11.10;77.70;;;;;;5005092;28;20378;-63
2021/04/17 08:05:09;;;;;;;9.93;8.63;;;11.00;77.60;;;;;;5005305;28;19986;-63
2021/04/17 08:07:35;;;;;;;12.35;9.50;;;11.00;78.00;;;;;;5003934;28;20034;-64
2021/04/17 08:10:01;;;;;;;11.63;9.88;;;11.00;77.80;;;;;;5004164;28;20092;-64
2021/04/17 08:12:27;;;;;;;13.27;10.93;;;11.10;77.80;;;;;;4989488;28;20026;-64
2021/04/17 08:14:53;;;;;;;12.98;10.32;;;11.10;77.70;;;;;;5007682;28;20080;-64
2021/04/17 08:17:20;;;;;;;12.18;10.85;;;11.00;77.60;;;;;;5006086;28;21324;-64
2021/04/17 08:19:46;;;;;;;11.48;9.68;;;11.00;77.50;;;;;;5006518;28;20088;-64
2021/04/17 08:22:12;;;;;;;12.32;11.02;;;11.10;77.30;;;;;;5008600;28;20080;-64
2021/04/17 08:24:38;;;;;;;12.93;10.82;;;11.10;77.20;;;;;;5007324;28;20089;-64
2021/04/17 08:27:05;;;;;;;11.18;9.63;;;11.10;77.30;;;;;;5008726;28;20532;-64
2021/04/17 08:29:48;;;;;;;12.52;9.95;;;11.10;77.50;;;;;;5005190;28;20038;-64
2021/04/17 08:32:32;;;;;;;13.50;11.05;;;11.10;77.40;;;;;;5007351;28;20018;-64
2021/04/17 08:35:10;;;;;;;13.93;11.27;;;11.10;77.70;;;;;;5008552;28;20034;-64
2021/04/17 08:37:55;;;;;;;13.88;11.32;;;11.10;77.70;;;;;;5007660;28;20550;-64
2021/04/17 08:40:51;;;;;;;12.95;10.80;;;11.20;77.50;;;;;;5007934;28;20124;-64
2021/04/17 08:43:17;;;;;;;12.73;10.82;;;11.20;76.90;;;;;;4983856;28;20073;-64
2021/04/17 08:46:11;;;;;;;14.75;11.82;;;11.20;77.40;;;;;;5003936;28;20133;-64
2021/04/17 08:48:52;;;;;;;13.07;11.13;;;11.30;77.20;;;;;;5007291;28;20397;-64
2021/04/17 08:51:37;;;;;;;14.93;12.07;;;11.30;76.90;;;;;;5009072;28;20104;-64
2021/04/17 08:54:06;;;;;;;16.15;11.70;;;11.40;76.90;;;;;;5008991;28;20048;-66
2021/04/17 08:56:58;;;;;;;11.93;10.40;;;11.40;76.60;;;;;;5009367;28;20026;-64
2021/04/17 08:59:32;;;;;;;12.80;10.65;;;11.50;76.20;;;;;;5008018;28;20393;-63
2021/04/17 09:02:02;;;;;;;13.40;10.68;;;11.50;76.10;;;;;;5009500;28;20394;-64
2021/04/17 09:04:28;;;;;;;12.30;10.00;;;11.50;75.60;;;;;;4991072;28;20525;-65
2021/04/17 09:06:56;;;;;;;12.48;10.85;;;11.40;75.20;;;;;;5007751;28;20038;-63
2021/04/17 09:09:22;;;;;;;13.38;10.32;;;11.40;75.60;;;;;;5007973;28;20026;-63
2021/04/17 09:11:56;;;;;;;12.20;10.38;;;11.30;75.50;;;;;;5009249;28;20042;-65
2021/04/17 09:14:32;;;;;;;12.65;10.50;;;11.30;75.60;;;;;;5006589;28;20034;-62
2021/04/17 09:17:03;;;;;;;12.25;10.38;;;11.30;75.70;;;;;;5008486;28;21270;-63
2021/04/17 09:19:41;;;;;;;12.02;10.20;;;11.30;76.00;;;;;;5009194;28;20084;-63
2021/04/17 09:22:29;;;;;;;13.27;10.68;;;11.30;75.90;;;;;;5007701;28;20500;-65
2021/04/17 09:25:03;;;;;;;12.70;10.45;;;11.40;75.70;;;;;;5003841;28;20033;-63
2021/04/17 09:27:32;;;;;;;13.00;10.85;;;11.40;75.70;;;;;;5007144;28;20104;-63
2021/04/17 09:30:08;;;;;;;12.60;10.75;;;11.40;75.50;;;;;;5007494;28;20460;-63
2021/04/17 09:32:49;;;;;;;14.65;11.70;;;11.40;75.60;;;;;;5005470;28;20025;-65
2021/04/17 09:35:25;;;;;;;13.02;10.55;;;11.40;75.40;;;;;;5004501;28;20037;-63
2021/04/17 09:38:09;;;;;;;14.88;10.82;;;11.40;75.60;;;;;;5005511;28;20030;-63
2021/04/17 09:40:37;;;;;;;12.65;10.52;;;11.40;75.60;;;;;;5007075;28;20088;-63
2021/04/17 09:43:06;;;;;;;13.52;11.38;;;11.40;75.60;;;;;;5006037;28;20434;-65
2021/04/17 09:45:39;;;;;;;14.77;11.50;;;11.50;75.40;;;;;;5005802;28;20026;-63
2021/04/17 09:48:09;;;;;;;14.80;12.05;;;11.50;75.20;;;;;;5005777;28;20180;-63
2021/04/17 09:50:36;;;;;;;13.57;10.40;;;11.50;75.10;;;;;;5006970;28;20569;-63
2021/04/17 09:53:29;;;;;;;13.82;10.57;;;11.40;75.30;;;;;;5007331;28;20385;-63
2021/04/17 09:56:12;;;;;;;14.38;11.35;;;11.40;75.40;;;;;;5000778;28;20120;-63
2021/04/17 09:58:42;;;;;;;13.25;10.95;;;11.50;75.60;;;;;;5007346;28;20049;-63
2021/04/17 10:01:16;;;;;;;13.25;10.55;;;11.50;75.80;;;;;;5002435;28;20038;-63
2021/04/17 10:04:04;;;;;;;13.10;10.40;;;11.60;75.40;;;;;;5006955;28;20049;-64
2021/04/17 10:06:37;;;;;;;12.10;9.93;;;11.60;75.10;;;;;;5010608;28;20025;-64
2021/04/17 10:09:12;;;;;;;12.30;9.80;;;11.50;74.60;;;;;;5013068;28;20117;-63
2021/04/17 10:11:40;;;;;;;11.10;9.25;;;11.50;74.80;;;;;;5012603;28;20034;-64
2021/04/17 10:14:08;;;;;;;15.50;10.73;;;11.40;75.00;;;;;;5007923;28;20101;-64
2021/04/17 10:16:36;;;;;;;12.25;9.73;;;11.40;75.00;;;;;;5012763;28;20029;-64
2021/04/17 10:19:07;;;;;;;14.50;11.52;;;11.40;74.80;;;;;;5008544;28;20029;-64
2021/04/17 10:21:35;;;;;;;13.73;11.13;;;11.40;74.60;;;;;;5006893;28;20038;-64
2021/04/17 10:24:26;;;;;;;13.25;9.88;;;11.40;74.60;;;;;;4998773;28;20066;-64
2021/04/17 10:27:09;;;;;;;12.40;10.35;;;11.30;74.70;;;;;;5008151;28;20425;-64
2021/04/17 10:29:45;;;;;;;13.70;10.38;;;11.30;74.60;;;;;;5010656;28;20033;-64
2021/04/17 10:32:20;;;;;;;11.70;9.90;;;11.30;75.00;;;;;;5006012;28;20029;-64
2021/04/17 10:34:50;;;;;;;13.10;10.48;;;11.30;75.00;;;;;;5008554;28;20048;-64
2021/04/17 10:37:24;;;;;;;13.10;10.27;;;11.40;75.30;;;;;;5011259;28;20072;-64
2021/04/17 10:40:07;;;;;;;12.10;10.15;;;11.40;75.20;;;;;;5010857;28;20034;-64
2021/04/17 10:42:53;;;;;;;13.75;11.50;;;11.50;75.00;;;;;;5013261;28;20061;-64
2021/04/17 10:45:41;;;;;;;14.48;11.95;;;11.50;74.70;;;;;;5013730;28;20499;-64
2021/04/17 10:48:17;;;;;;;15.82;12.07;;;11.40;74.50;;;;;;5010627;28;20041;-64
2021/04/17 10:50:51;;;;;;;13.32;10.50;;;11.40;74.80;;;;;;5014834;28;20451;-64
2021/04/17 10:53:21;;;;;;;12.85;10.63;;;11.50;75.00;;;;;;5010765;28;20131;-64
2021/04/17 10:55:50;;;;;;;12.25;9.95;;;11.50;74.70;;;;;;5008436;28;20029;-64
2021/04/17 10:58:35;;;;;;;14.23;11.13;;;11.60;74.50;;;;;;5008522;28;20026;-64
2021/04/17 11:01:05;;;;;;;13.98;10.05;;;11.70;74.50;;;;;;5009293;28;20104;-64
2021/04/17 11:03:47;;;;;;;12.07;10.15;;;11.70;74.40;;;;;;5008393;28;20541;-64
2021/04/17 11:06:20;;;;;;;12.13;9.95;;;11.70;74.00;;;;;;5010106;28;20128;-64
2021/04/17 11:08:48;;;;;;;11.75;8.93;;;11.80;73.90;;;;;;5011620;28;20068;-64
2021/04/17 11:11:20;;;;;;;10.80;8.75;;;11.80;73.60;;;;;;5009930;28;20041;-64
2021/04/17 11:13:46;;;;;;;12.73;9.60;;;11.80;73.50;;;;;;5011099;28;20029;-64
2021/04/17 11:16:13;;;;;;;10.95;9.30;;;11.90;73.60;;;;;;5010491;28;20029;-64
2021/04/17 11:18:41;;;;;;;10.05;8.15;;;11.90;73.60;;;;;;5011286;28;20022;-64
2021/04/17 11:21:15;;;;;;;10.40;8.93;;;11.90;73.20;;;;;;5009756;28;20022;-64
2021/04/17 11:23:48;;;;;;;10.38;8.50;;;11.90;73.10;;;;;;5008556;28;20037;-64
2021/04/17 11:26:29;;;;;;;9.43;8.40;;;11.90;72.90;;;;;;5008375;28;20042;-64
2021/04/17 11:28:57;;;;;;;9.10;8.15;;;12.00;72.90;;;;;;5013292;28;20104;-64
2021/04/17 11:31:28;;;;;;;9.95;8.18;;;12.00;73.20;;;;;;5009300;28;20481;-64
2021/04/17 11:33:56;;;;;;;9.60;8.27;;;12.00;72.60;;;;;;5008941;28;20469;-64
2021/04/17 11:36:23;;;;;;;9.13;7.88;;;12.10;72.40;;;;;;5008313;28;20478;-64
2021/04/17 11:38:50;;;;;;;10.45;8.88;;;12.20;72.80;;;;;;5010347;28;20030;-64
2021/04/17 11:41:16;;;;;;;9.65;8.38;;;12.30;72.50;;;;;;5007607;28;20355;-64
2021/04/17 11:43:42;;;;;;;9.25;8.27;;;12.40;72.10;;;;;;5011430;28;20025;-64
2021/04/17 11:46:10;;;;;;;10.75;8.95;;;12.50;71.60;;;;;;5007019;28;20155;-64
2021/04/17 11:48:37;;;;;;;9.55;8.50;;;12.50;71.20;;;;;;5008090;28;20030;-64
2021/04/17 11:51:02;;;;;;;9.57;8.57;;;12.60;71.10;;;;;;5010456;28;20556;-64
2021/04/17 11:53:28;;;;;;;9.20;7.70;;;12.60;70.70;;;;;;5008573;28;20108;-64
2021/04/17 11:55:54;;;;;;;8.95;8.02;;;12.60;70.60;;;;;;5008106;28;20397;-64
2021/04/17 11:58:20;;;;;;;9.85;8.45;;;12.60;70.80;;;;;;5009170;28;20097;-64
2021/04/17 12:00:46;;;;;;;7.88;6.90;;;12.60;71.00;;;;;;5012732;28;20038;-64
2021/04/17 12:03:21;;;;;;;8.77;7.55;;;12.70;70.50;;;;;;5017281;28;20498;-64
2021/04/17 12:05:47;;;;;;;9.20;7.03;;;12.70;70.10;;;;;;5020919;28;20037;-64
2021/04/17 12:08:13;;;;;;;8.90;7.60;;;12.80;69.60;;;;;;5019057;28;20091;-64
2021/04/17 12:10:39;;;;;;;9.48;7.22;;;12.90;69.20;;;;;;5019876;28;20047;-64
2021/04/17 12:13:04;;;;;;;8.18;7.38;;;12.90;69.10;;;;;;5018322;28;20053;-64
2021/04/17 12:15:30;;;;;;;8.23;7.10;;;13.00;68.80;;;;;;4997433;28;20076;-64
2021/04/17 12:17:55;;;;;;;7.55;6.80;;;13.00;68.80;;;;;;5019152;28;20077;-64
2021/04/17 12:20:22;;;;;;;7.63;6.82;;;13.10;68.40;;;;;;5017029;28;20057;-64
2021/04/17 12:22:47;;;;;;;8.13;7.10;;;13.10;67.80;;;;;;5019551;28;20033;-64
2021/04/17 12:25:13;;;;;;;7.53;6.82;;;13.10;67.20;;;;;;5017097;28;20028;-64
2021/04/17 12:27:39;;;;;;;7.25;6.55;;;13.00;67.40;;;;;;5018245;28;20033;-64
2021/04/17 12:30:07;;;;;;;7.45;6.70;;;12.90;67.00;;;;;;5017947;28;20034;-64
2021/04/17 12:32:32;;;;;;;7.45;6.55;;;12.90;66.60;;;;;;5019570;28;20112;-64
2021/04/17 12:34:58;;;;;;;8.52;7.63;;;12.80;66.90;;;;;;5019421;28;20442;-64
2021/04/17 12:37:24;;;;;;;7.68;6.97;;;12.70;67.20;;;;;;5017778;28;20095;-64
2021/04/17 12:39:50;;;;;;;8.18;7.38;;;12.70;67.30;;;;;;5019736;28;20865;-64
2021/04/17 12:42:16;;;;;;;7.90;7.13;;;12.70;67.50;;;;;;5019265;28;20037;-64
2021/04/17 12:44:42;;;;;;;8.00;7.03;;;12.70;67.50;;;;;;5021443;28;20033;-64
2021/04/17 12:47:08;;;;;;;8.32;7.53;;;12.70;67.50;;;;;;5018806;28;20383;-64